Sonoma, CA

11:59 PM PDT on October 21, 2014 (GMT -0700)
Just off the Plaza | Change Station
CLOSE
Current Station
Personal Weather Station
Location: Sonoma, CA
Elevation: 80 ft
Nearby Weather Stations

Elev 80 ft 38.29 °N, 122.46 °W | Updated 7 seconds ago

Partly Cloudy
Partly Cloudy
52.9 °F
Feels Like 52.9 °F
N
0.0
Wind Variable Wind from SW
Gusts 1.0 mph

Today
High -- | Low -- °F
--% Chance of Precip.
Yesterday
High -- | Low -- °F
Precip. -- in
7:24 AM 6:23 PM
Waning Crescent, 3% visible
Pressure 30.07 in
Visibility 10.0 miles
Clouds Scattered Clouds 300 ft
Mostly Cloudy 1800 ft
Dew Point 47 °F
Humidity 81%
Rainfall 0.00 in
Snow Depth Not available.
UV 0 out of 12
Pollen 2.30 out of 12
Ozone Good
PM2.5 Good
Flu Activity Sporadic
METAR KO69 220635Z AUTO 00000KT 10SM SCT003 BKN018 10/10 A3007 RMK AO1

More Conditions Fewer Conditions

Pressure 30.07 in
Visibility 10.0 miles
Clouds Scattered Clouds 300 ft
Mostly Cloudy 1800 ft
Dew Point 47 °F
Humidity 81%
Rainfall 0.00 in
Snow Depth Not available.
UV 0 out of 12
Pollen 2.30 out of 12
Ozone Good
PM2.5 Good
Flu Activity Sporadic
METAR KO69 220635Z AUTO 00000KT 10SM SCT003 BKN018 10/10 A3007 RMK AO1

More Conditions Fewer Conditions

10-Day Weather Forecast

Almanac

Astronomy

Oct. 21, 2014 Rise Set
Actual Time 7:24 AM PDT 6:23 PM PDT
Civil Twilight 6:57 AM PDT 6:50 PM PDT
Nautical Twilight 6:27 AM PDT 7:21 PM PDT
Astronomical Twilight 5:56 AM PDT 7:51 PM PDT
Moon 5:15 AM PDT (10/21) 5:19 PM PDT (10/21)
Length of Visible Light 11h 52m
Length of Day
10h 58m
Tomorrow will be 2m 19s shorter.
Waning Crescent, 3% of the Moon is Illuminated
Oct 22
Waning Crescent
Oct 23
New
Oct 30
First Quarter
Nov 6
Full
Nov 14
Last Quarter

Community

WunderPhotos

Upload Photos

1,763,884 photos uploaded!

Nearby

Air Quality

  Air Quality AQ Index Pollutant
Yesterday Good
OZONE
Yesterday Good
PM2.5
Current Good
PM2.5
Current Good
OZONE
Tuesday Good
PM2.5
Wednesday Good
PM2.5
Thursday Good
PM2.5
Friday Good
PM2.5
Saturday Good
PM2.5
Sunday Good
PM2.5

Snow Depth

Station Depth Elevation
CSS Lab 1 in 6900 ft
Squaw Valley 0 in 8200 ft
Echo Peak 1 in 7800 ft
Rubicon #2 0 in 7500 ft
Carson Pass 0 in 8500 ft

Earthquake Activity

City Distance Mag. Time & Date
Rio Dell, California 170 miles 4.2 7:24 AM PDT
2014-10-19
Minimum magnitude displayed is 2.5.

Coastal Water Temperatures

Place Temperature
San Francisco, CA 62.1 °F
Richmond, CA 64.0 °F
Port Chicago, CA 66.0 °F

Nearby Weather Stations